createdAt,value
2023-05-18T00:01:05.397Z,1.83
2023-05-18T00:03:34.146Z,1.58
2023-05-18T00:06:04.383Z,1.70
2023-05-18T00:08:31.687Z,1.30
2023-05-18T00:10:58.399Z,1.83
2023-05-18T00:13:24.988Z,1.90
2023-05-18T00:15:52.030Z,1.52
2023-05-18T00:18:18.666Z,1.70
2023-05-18T00:20:46.216Z,1.67
2023-05-18T00:23:16.411Z,1.80
2023-05-18T00:25:43.145Z,1.50
2023-05-18T00:28:09.795Z,1.80
2023-05-18T00:30:36.656Z,1.80
2023-05-18T00:33:03.705Z,1.90
2023-05-18T00:35:30.765Z,1.70
2023-05-18T00:37:57.862Z,1.75
2023-05-18T00:40:25.138Z,1.77
2023-05-18T00:42:51.826Z,2.10
2023-05-18T00:45:18.873Z,1.67
2023-05-18T00:47:48.234Z,1.73
2023-05-18T00:50:14.826Z,1.30
2023-05-18T00:52:41.758Z,1.58
2023-05-18T00:55:08.514Z,1.80
2023-05-18T00:57:36.734Z,1.67
2023-05-18T01:00:04.996Z,1.70
2023-05-18T01:02:32.003Z,1.70
2023-05-18T01:05:00.677Z,1.55
2023-05-18T01:07:28.237Z,1.40
2023-05-18T01:09:54.879Z,1.83
2023-05-18T01:12:26.499Z,1.60
2023-05-18T01:14:57.938Z,1.73
2023-05-18T01:17:37.709Z,1.73
2023-05-18T01:20:09.942Z,1.45
2023-05-18T01:22:36.710Z,1.70
2023-05-18T01:25:42.287Z,1.85
2023-05-18T01:28:12.524Z,1.77
2023-05-18T01:30:41.059Z,1.50
2023-05-18T01:33:11.081Z,1.77
2023-05-18T01:35:37.896Z,1.70
2023-05-18T01:38:04.746Z,1.35
2023-05-18T01:40:33.350Z,1.50
2023-05-18T01:43:01.321Z,1.65
2023-05-18T01:45:28.098Z,1.77
2023-05-18T01:47:56.911Z,1.90
2023-05-18T01:50:29.702Z,1.60
2023-05-18T01:53:09.968Z,1.70
2023-05-18T01:55:36.817Z,1.60
2023-05-18T01:58:03.687Z,1.85
2023-05-18T02:00:33.592Z,1.50
2023-05-18T02:03:00.490Z,1.83
2023-05-18T02:05:27.565Z,1.45
2023-05-18T02:07:54.267Z,1.73
2023-05-18T02:10:20.987Z,1.75
2023-05-18T02:12:52.549Z,1.70
2023-05-18T02:15:19.647Z,1.40
2023-05-18T02:17:46.710Z,1.50
2023-05-18T02:20:18.423Z,1.42
2023-05-18T02:22:46.083Z,1.45
2023-05-18T02:25:12.686Z,1.58
2023-05-18T02:27:39.304Z,1.58
2023-05-18T02:30:08.477Z,1.38
2023-05-18T02:32:39.228Z,1.50
2023-05-18T02:35:06.934Z,1.67
2023-05-18T02:37:34.821Z,1.50
2023-05-18T02:40:02.730Z,1.58
2023-05-18T02:42:29.351Z,1.33
2023-05-18T02:44:56.446Z,1.50
2023-05-18T02:47:23.430Z,1.77
2023-05-18T02:49:51.193Z,1.40
2023-05-18T02:52:17.898Z,1.67
2023-05-18T02:54:46.211Z,1.40
2023-05-18T02:57:13.974Z,1.48
2023-05-18T02:59:40.854Z,1.48
2023-05-18T03:02:07.508Z,1.35
2023-05-18T03:04:34.073Z,1.60
2023-05-18T03:07:02.867Z,1.63
2023-05-18T03:09:29.793Z,1.73
2023-05-18T03:11:56.686Z,1.70
2023-05-18T03:14:23.328Z,1.33
2023-05-18T03:16:54.365Z,1.50
2023-05-18T03:19:21.192Z,1.65
2023-05-18T03:21:49.435Z,1.50
2023-05-18T03:24:16.283Z,1.63
2023-05-18T03:26:47.179Z,1.83
2023-05-18T03:29:13.968Z,1.50
2023-05-18T03:31:41.319Z,1.60
2023-05-18T03:34:08.045Z,1.60
2023-05-18T03:36:35.856Z,1.38
2023-05-18T03:39:02.820Z,1.58
2023-05-18T03:41:30.059Z,1.60
2023-05-18T03:43:57.135Z,1.30
2023-05-18T03:46:25.232Z,1.40
2023-05-18T03:48:53.901Z,1.60
2023-05-18T03:51:20.842Z,1.63
2023-05-18T03:53:47.839Z,1.50
2023-05-18T03:56:14.422Z,1.90
2023-05-18T03:58:42.471Z,1.50
2023-05-18T04:01:09.417Z,1.48
2023-05-18T04:03:36.036Z,1.50
2023-05-18T04:06:02.754Z,1.50
2023-05-18T04:08:30.450Z,1.50
2023-05-18T04:10:57.509Z,1.60
2023-05-18T04:13:25.050Z,1.20
2023-05-18T04:15:52.001Z,1.40
2023-05-18T04:18:18.684Z,1.70
2023-05-18T04:20:46.122Z,1.67
2023-05-18T04:23:12.900Z,1.63
2023-05-18T04:25:41.795Z,1.65
2023-05-18T04:28:09.889Z,1.30
2023-05-18T04:30:37.739Z,1.60
2023-05-18T04:33:06.757Z,1.48
2023-05-18T04:35:33.625Z,1.40
2023-05-18T04:38:00.247Z,1.60
2023-05-18T04:40:26.820Z,1.40
2023-05-18T04:42:53.505Z,1.60
2023-05-18T04:45:20.441Z,1.55
2023-05-18T04:47:47.847Z,1.42
2023-05-18T04:50:17.512Z,1.52
2023-05-18T04:52:49.241Z,1.45
2023-05-18T04:55:28.045Z,1.30
2023-05-18T04:57:57.079Z,1.30
2023-05-18T05:00:28.047Z,1.73
2023-05-18T05:02:55.424Z,1.52
2023-05-18T05:05:22.771Z,1.52
2023-05-18T05:07:50.943Z,1.40
2023-05-18T05:10:18.271Z,1.70
2023-05-18T05:12:45.397Z,1.45
2023-05-18T05:15:13.114Z,1.30
2023-05-18T05:17:39.799Z,1.33
2023-05-18T05:20:06.852Z,1.30
2023-05-18T05:22:33.583Z,1.15
2023-05-18T05:25:05.158Z,1.30
2023-05-18T05:27:32.626Z,1.65
2023-05-18T05:29:59.302Z,1.67
2023-05-18T05:32:26.031Z,1.60
2023-05-18T05:34:52.804Z,1.40
2023-05-18T05:37:19.567Z,1.30
2023-05-18T05:39:46.476Z,1.70
2023-05-18T05:42:13.765Z,1.65
2023-05-18T05:44:41.029Z,1.30
2023-05-18T05:47:08.508Z,1.40
2023-05-18T05:49:35.266Z,1.40
2023-05-18T05:52:02.413Z,1.70
2023-05-18T05:54:29.131Z,1.33
2023-05-18T05:56:56.016Z,1.55
2023-05-18T05:59:23.045Z,1.60
2023-05-18T06:01:49.742Z,1.67
2023-05-18T06:04:16.580Z,1.20
2023-05-18T06:06:44.377Z,1.80
2023-05-18T06:09:11.081Z,1.40
2023-05-18T06:11:37.961Z,1.35
2023-05-18T06:14:04.957Z,1.50
2023-05-18T06:16:31.739Z,1.60
2023-05-18T06:18:58.728Z,1.52
2023-05-18T06:21:25.541Z,1.42
2023-05-18T06:23:52.574Z,1.40
2023-05-18T06:26:19.275Z,1.35
2023-05-18T06:28:45.834Z,1.48
2023-05-18T06:31:13.498Z,1.40
2023-05-18T06:33:40.175Z,1.40
2023-05-18T06:36:06.943Z,1.23
2023-05-18T06:38:33.558Z,1.50
2023-05-18T06:41:00.137Z,1.30
2023-05-18T06:43:28.555Z,1.70
2023-05-18T06:45:55.979Z,1.50
2023-05-18T06:48:26.064Z,1.20
2023-05-18T06:50:52.626Z,1.38
2023-05-18T06:53:19.291Z,1.35
2023-05-18T06:55:46.336Z,1.33
2023-05-18T06:58:13.599Z,1.40
2023-05-18T07:00:40.689Z,1.42
2023-05-18T07:03:08.265Z,1.30
2023-05-18T07:05:39.118Z,1.50
2023-05-18T07:08:07.580Z,1.35
2023-05-18T07:10:35.528Z,1.40
2023-05-18T07:13:02.314Z,1.55
2023-05-18T07:15:29.027Z,1.88
2023-05-18T07:17:56.325Z,1.70
2023-05-18T07:20:25.916Z,1.80
2023-05-18T07:22:55.249Z,1.63
2023-05-18T07:25:22.555Z,1.75
2023-05-18T07:27:49.408Z,1.75
2023-05-18T07:30:16.133Z,2.00
2023-05-18T07:32:45.341Z,1.83
2023-05-18T07:35:12.501Z,1.80
2023-05-18T07:37:39.175Z,1.63
2023-05-18T07:40:06.378Z,1.70
2023-05-18T07:42:34.035Z,1.60
2023-05-18T07:45:00.661Z,1.70
2023-05-18T07:47:27.327Z,2.00
2023-05-18T07:49:54.036Z,1.80
2023-05-18T07:52:20.638Z,1.88
2023-05-18T07:54:47.324Z,1.73
2023-05-18T07:57:14.134Z,1.80
2023-05-18T07:59:40.916Z,1.48
2023-05-18T08:02:07.685Z,1.60
2023-05-18T08:04:34.425Z,1.63
2023-05-18T08:07:02.041Z,1.70
2023-05-18T08:09:28.749Z,1.40
2023-05-18T08:11:55.604Z,2.08
2023-05-18T08:14:22.218Z,1.48
2023-05-18T08:16:48.983Z,1.55
2023-05-18T08:19:16.311Z,1.75
2023-05-18T08:21:43.642Z,1.73
2023-05-18T08:24:10.288Z,1.95
2023-05-18T08:26:37.158Z,2.78
2023-05-18T08:29:10.143Z,2.00
2023-05-18T08:31:40.567Z,2.47
2023-05-18T08:34:07.396Z,2.17
2023-05-18T08:36:34.421Z,2.22
2023-05-18T08:39:02.800Z,2.50
2023-05-18T08:41:30.863Z,2.70
2023-05-18T08:44:06.776Z,2.60
2023-05-18T08:46:42.572Z,2.28
2023-05-18T08:49:10.121Z,2.10
2023-05-18T08:51:37.301Z,2.25
2023-05-18T08:54:06.142Z,2.22
2023-05-18T08:56:36.080Z,2.47
2023-05-18T08:59:04.885Z,2.15
2023-05-18T09:01:31.631Z,2.65
2023-05-18T09:03:58.604Z,2.25
2023-05-18T09:06:25.310Z,1.90
2023-05-18T09:08:53.040Z,1.73
2023-05-18T09:11:19.918Z,2.00
2023-05-18T09:13:46.756Z,1.60
2023-05-18T09:16:13.473Z,2.15
2023-05-18T09:18:40.208Z,2.20
2023-05-18T09:21:07.049Z,1.90
2023-05-18T09:23:33.789Z,1.92
2023-05-18T09:26:00.435Z,2.10
2023-05-18T09:28:37.260Z,1.60
2023-05-18T09:31:04.860Z,1.90
2023-05-18T09:33:38.829Z,1.48
2023-05-18T09:36:06.904Z,2.03
2023-05-18T09:38:48.625Z,2.30
2023-05-18T09:41:19.080Z,2.20
2023-05-18T09:43:46.515Z,2.30
2023-05-18T09:46:13.263Z,2.40
2023-05-18T09:48:45.030Z,2.03
2023-05-18T09:51:16.601Z,2.72
2023-05-18T09:53:53.319Z,2.30
2023-05-18T09:56:20.352Z,2.17
2023-05-18T09:58:47.074Z,2.08
2023-05-18T10:01:14.105Z,2.38
2023-05-18T10:03:41.239Z,2.13
2023-05-18T10:06:09.866Z,2.50
2023-05-18T10:08:36.866Z,2.00
2023-05-18T10:11:04.270Z,2.45
2023-05-18T10:13:32.205Z,2.50
2023-05-18T10:16:06.014Z,2.47
2023-05-18T10:18:35.781Z,2.03
2023-05-18T10:21:03.782Z,2.22
2023-05-18T10:23:35.634Z,2.10
2023-05-18T10:26:05.259Z,2.15
2023-05-18T10:28:41.167Z,2.33
2023-05-18T10:31:07.957Z,2.28
2023-05-18T10:33:35.802Z,2.05
2023-05-18T10:36:03.486Z,2.33
2023-05-18T10:38:30.834Z,2.00
2023-05-18T10:41:00.542Z,2.13
2023-05-18T10:43:27.926Z,2.22
2023-05-18T10:45:55.316Z,1.92
2023-05-18T10:48:22.375Z,2.00
2023-05-18T10:50:50.679Z,2.10
2023-05-18T10:53:19.023Z,2.50
2023-05-18T10:55:47.312Z,2.28
2023-05-18T10:58:15.996Z,2.20
2023-05-18T11:00:51.392Z,2.53
2023-05-18T11:03:19.007Z,2.35
2023-05-18T11:06:11.342Z,1.95
2023-05-18T11:08:48.895Z,1.67
2023-05-18T11:11:18.010Z,2.05
2023-05-18T11:13:48.665Z,1.80
2023-05-18T11:16:15.860Z,2.00
2023-05-18T11:18:49.663Z,2.00
2023-05-18T11:21:32.498Z,1.88
2023-05-18T11:24:30.863Z,1.73
2023-05-18T11:26:59.904Z,1.60
2023-05-18T11:29:35.003Z,1.70
2023-05-18T11:32:02.132Z,1.80
2023-05-18T11:34:45.939Z,2.03
2023-05-18T11:37:16.525Z,1.60
2023-05-18T11:42:23.043Z,2.05
2023-05-18T11:44:56.245Z,1.77
2023-05-18T11:47:24.499Z,1.65
2023-05-18T11:49:51.286Z,1.88
2023-05-18T11:52:21.925Z,1.70
2023-05-18T11:54:53.045Z,1.77
2023-05-18T11:57:21.388Z,1.52
2023-05-18T11:59:49.182Z,1.73
2023-05-18T12:02:20.832Z,1.60
2023-05-18T12:04:54.649Z,1.50
2023-05-18T12:07:21.722Z,1.60
2023-05-18T12:09:48.504Z,1.38
2023-05-18T12:12:17.320Z,1.88
2023-05-18T12:14:45.192Z,1.52
2023-05-18T12:17:12.130Z,1.58
2023-05-18T12:19:43.697Z,1.95
2023-05-18T12:22:30.197Z,1.70
2023-05-18T12:24:57.105Z,1.80
2023-05-18T12:27:28.431Z,1.80
2023-05-18T12:29:55.262Z,1.50
2023-05-18T12:32:22.101Z,1.73
2023-05-18T12:34:52.847Z,1.52
2023-05-18T12:37:23.852Z,1.75
2023-05-18T12:39:53.546Z,2.00
2023-05-18T12:42:20.224Z,2.08
2023-05-18T12:44:46.959Z,2.25
2023-05-18T12:47:14.115Z,2.00
2023-05-18T12:49:42.273Z,2.30
2023-05-18T12:52:12.901Z,2.28
2023-05-18T12:55:01.185Z,2.53
2023-05-18T12:57:27.892Z,2.08
2023-05-18T12:59:54.592Z,2.05
2023-05-18T13:02:35.370Z,2.20
2023-05-18T13:05:10.237Z,2.90
2023-05-18T13:07:41.266Z,2.63
2023-05-18T13:10:12.021Z,2.50
2023-05-18T13:12:44.528Z,2.55
2023-05-18T13:15:12.186Z,2.67
2023-05-18T13:17:38.999Z,2.00
2023-05-18T13:20:15.620Z,3.00
2023-05-18T13:22:43.461Z,2.28
2023-05-18T13:25:10.520Z,2.20
2023-05-18T13:27:37.191Z,2.45
2023-05-18T13:30:03.979Z,2.30
2023-05-18T13:32:30.729Z,2.17
2023-05-18T13:34:57.361Z,2.22
2023-05-18T13:37:24.477Z,2.17
2023-05-18T13:39:51.091Z,2.25
2023-05-18T13:42:21.476Z,2.22
2023-05-18T13:44:48.333Z,2.28
2023-05-18T13:47:14.974Z,2.10
2023-05-18T13:49:41.524Z,2.15
2023-05-18T13:52:10.230Z,2.47
2023-05-18T13:54:37.975Z,1.98
2023-05-18T13:57:04.783Z,2.00
2023-05-18T13:59:34.791Z,2.42
2023-05-18T14:02:01.793Z,2.08
2023-05-18T14:04:28.554Z,2.38
2023-05-18T14:06:56.130Z,2.25
2023-05-18T14:09:22.856Z,2.03
2023-05-18T14:11:51.066Z,2.38
2023-05-18T14:14:18.848Z,2.58
2023-05-18T14:16:45.617Z,2.00
2023-05-18T14:19:12.335Z,1.95
2023-05-18T14:21:38.997Z,2.20
2023-05-18T14:24:07.617Z,1.92
2023-05-18T14:26:37.325Z,2.55
2023-05-18T14:29:06.089Z,2.00
2023-05-18T14:31:32.875Z,1.98
2023-05-18T14:33:59.843Z,2.05
2023-05-18T14:36:26.563Z,2.03
2023-05-18T14:38:53.671Z,2.00
2023-05-18T14:41:21.846Z,1.85
2023-05-18T14:43:53.816Z,1.50
2023-05-18T14:46:20.797Z,1.60
2023-05-18T14:48:47.396Z,1.60
2023-05-18T14:51:14.602Z,2.08
2023-05-18T14:53:41.305Z,1.90
2023-05-18T14:56:09.545Z,1.75
2023-05-18T14:58:36.260Z,2.42
2023-05-18T15:01:03.096Z,2.05
2023-05-18T15:03:29.820Z,1.92
2023-05-18T15:05:56.863Z,1.50
2023-05-18T15:08:23.583Z,1.90
2023-05-18T15:10:50.172Z,1.92
2023-05-18T15:13:18.752Z,1.92
2023-05-18T15:15:45.551Z,1.67
2023-05-18T15:18:12.164Z,1.77
2023-05-18T15:20:44.879Z,1.63
2023-05-18T15:23:11.741Z,1.70
2023-05-18T15:25:38.520Z,2.13
2023-05-18T15:28:05.877Z,1.63
2023-05-18T15:30:32.937Z,1.92
2023-05-18T15:33:02.583Z,1.40
2023-05-18T15:35:29.425Z,1.70
2023-05-18T15:37:56.491Z,1.80
2023-05-18T15:40:23.316Z,1.58
2023-05-18T15:42:49.956Z,1.70
2023-05-18T15:45:16.476Z,1.63
2023-05-18T15:47:43.377Z,1.50
2023-05-18T15:50:10.312Z,1.83
2023-05-18T15:52:36.864Z,1.50
2023-05-18T15:55:03.548Z,1.70
2023-05-18T15:57:30.115Z,1.60
2023-05-18T15:59:56.782Z,1.65
2023-05-18T16:02:25.783Z,1.73
2023-05-18T16:04:52.611Z,1.90
2023-05-18T16:07:19.619Z,1.63
2023-05-18T16:09:48.267Z,1.60
2023-05-18T16:12:14.885Z,1.70
2023-05-18T16:14:41.765Z,1.40
2023-05-18T16:17:08.533Z,1.73
2023-05-18T16:19:35.889Z,1.73
2023-05-18T16:22:02.795Z,1.42
2023-05-18T16:24:29.424Z,1.70
2023-05-18T16:26:56.977Z,1.88
2023-05-18T16:29:23.534Z,1.60
2023-05-18T16:31:50.211Z,1.60
2023-05-18T16:34:16.914Z,1.52
2023-05-18T16:36:43.827Z,1.42
2023-05-18T16:39:11.148Z,1.77
2023-05-18T16:41:37.808Z,1.90
2023-05-18T16:44:04.490Z,1.50
2023-05-18T16:46:31.169Z,1.30
2023-05-18T16:48:57.930Z,1.50
2023-05-18T16:51:25.907Z,1.48
2023-05-18T16:53:53.955Z,1.73
2023-05-18T16:56:22.246Z,1.50
2023-05-18T16:58:52.809Z,1.20
2023-05-18T17:01:28.258Z,1.55
2023-05-18T17:03:55.939Z,1.65
2023-05-18T17:06:22.723Z,1.48
2023-05-18T17:08:53.128Z,1.45
2023-05-18T17:11:19.757Z,1.58
2023-05-18T17:13:46.342Z,1.70
2023-05-18T17:16:14.118Z,1.50
2023-05-18T17:18:41.396Z,1.30
2023-05-18T17:21:07.989Z,1.60
2023-05-18T17:23:34.664Z,1.48
2023-05-18T17:26:06.573Z,1.50
2023-05-18T17:28:33.551Z,1.40
2023-05-18T17:31:00.463Z,1.48
2023-05-18T17:33:27.322Z,1.42
2023-05-18T17:35:53.996Z,1.42
2023-05-18T17:38:22.877Z,1.60
2023-05-18T17:40:49.519Z,1.55
2023-05-18T17:43:16.158Z,1.42
2023-05-18T17:45:42.751Z,1.38
2023-05-18T17:48:09.633Z,1.50
2023-05-18T17:50:38.007Z,1.63
2023-05-18T17:53:04.970Z,1.70
2023-05-18T17:55:31.938Z,1.30
2023-05-18T17:58:01.077Z,1.52
2023-05-18T18:00:27.735Z,1.40
2023-05-18T18:02:55.428Z,1.38
2023-05-18T18:05:22.313Z,1.50
2023-05-18T18:07:48.865Z,1.30
2023-05-18T18:10:15.520Z,1.48
2023-05-18T18:12:47.140Z,1.50
2023-05-18T18:15:14.069Z,1.40
2023-05-18T18:17:42.278Z,1.50
2023-05-18T18:20:10.498Z,1.70
2023-05-18T18:22:37.239Z,1.30
2023-05-18T18:25:03.924Z,1.13
2023-05-18T18:27:31.282Z,1.50
2023-05-18T18:29:58.258Z,1.38
2023-05-18T18:32:24.928Z,1.33
2023-05-18T18:34:53.806Z,1.13
2023-05-18T18:37:20.850Z,1.40
2023-05-18T18:39:49.053Z,1.85
2023-05-18T18:42:21.391Z,1.25
2023-05-18T18:44:53.030Z,1.33
2023-05-18T18:47:21.109Z,1.23
2023-05-18T18:49:47.969Z,1.63
2023-05-18T18:52:15.838Z,1.40
2023-05-18T18:54:42.825Z,1.40
2023-05-18T18:57:12.115Z,1.63
2023-05-18T18:59:39.251Z,1.40
2023-05-18T19:02:06.312Z,1.45
2023-05-18T19:04:34.126Z,1.38
2023-05-18T19:07:03.448Z,1.15
2023-05-18T19:09:39.689Z,1.30
2023-05-18T19:12:07.109Z,1.40
2023-05-18T19:14:34.682Z,1.63
2023-05-18T19:17:01.522Z,1.30
2023-05-18T19:19:30.608Z,1.40
2023-05-18T19:22:00.444Z,1.40
2023-05-18T19:24:27.688Z,1.30
2023-05-18T19:26:55.381Z,1.13
2023-05-18T19:29:25.065Z,1.33
2023-05-18T19:31:58.534Z,0.98
2023-05-18T19:34:26.833Z,1.35
2023-05-18T19:36:53.794Z,1.30
2023-05-18T19:39:21.837Z,1.30
2023-05-18T19:41:49.477Z,1.08
2023-05-18T19:44:16.253Z,1.25
2023-05-18T19:46:42.960Z,1.13
2023-05-18T19:49:10.224Z,1.23
2023-05-18T19:51:38.445Z,1.30
2023-05-18T19:54:06.154Z,1.25
2023-05-18T19:56:33.011Z,1.10
2023-05-18T19:59:00.958Z,1.00
2023-05-18T20:01:30.046Z,0.95
2023-05-18T20:03:56.941Z,1.20
2023-05-18T20:06:23.708Z,1.05
2023-05-18T20:08:50.718Z,1.05
2023-05-18T20:11:18.730Z,1.13
2023-05-18T20:13:47.742Z,1.05
2023-05-18T20:16:14.568Z,1.27
2023-05-18T20:18:44.780Z,1.23
2023-05-18T20:21:11.633Z,1.17
2023-05-18T20:23:40.160Z,1.20
2023-05-18T20:26:09.177Z,1.17
2023-05-18T20:28:37.155Z,0.98
2023-05-18T20:31:03.991Z,0.88
2023-05-18T20:33:31.879Z,1.50
2023-05-18T20:36:04.233Z,1.40
2023-05-18T20:38:30.847Z,1.33
2023-05-18T20:40:59.501Z,1.05
2023-05-18T20:43:26.347Z,1.05
2023-05-18T20:45:53.249Z,1.00
2023-05-18T20:48:26.675Z,1.20
2023-05-18T20:50:53.695Z,1.20
2023-05-18T20:53:20.523Z,1.20
2023-05-18T20:55:47.652Z,1.00
2023-05-18T20:58:18.558Z,1.17
2023-05-18T21:00:46.749Z,1.00
2023-05-18T21:03:14.745Z,1.10
2023-05-18T21:05:51.269Z,1.27
2023-05-18T21:08:17.850Z,1.10
2023-05-18T21:10:44.446Z,1.15
2023-05-18T21:13:12.569Z,1.33
2023-05-18T21:15:39.196Z,1.20
2023-05-18T21:18:06.433Z,1.13
2023-05-18T21:20:33.444Z,1.00
2023-05-18T21:23:00.453Z,1.02
2023-05-18T21:25:28.296Z,1.10
2023-05-18T21:27:55.209Z,1.02
2023-05-18T21:30:22.317Z,1.05
2023-05-18T21:32:49.412Z,1.02
2023-05-18T21:35:16.124Z,1.10
2023-05-18T21:37:42.763Z,0.93
2023-05-18T21:40:10.053Z,1.00
2023-05-18T21:42:41.312Z,1.10
2023-05-18T21:45:10.795Z,1.02
2023-05-18T21:47:38.871Z,0.98
2023-05-18T21:50:05.969Z,0.90
2023-05-18T21:52:32.779Z,1.08
2023-05-18T21:54:59.919Z,1.00
2023-05-18T21:57:26.493Z,0.90
2023-05-18T21:59:53.631Z,1.02
2023-05-18T22:02:20.225Z,1.27
2023-05-18T22:04:46.837Z,0.95
2023-05-18T22:07:14.627Z,0.90
2023-05-18T22:09:41.258Z,1.10
2023-05-18T22:12:07.988Z,1.00
2023-05-18T22:14:34.612Z,1.20
2023-05-18T22:17:02.236Z,1.20
2023-05-18T22:19:29.012Z,1.15
2023-05-18T22:21:57.980Z,0.93
2023-05-18T22:24:24.918Z,0.98
2023-05-18T22:26:51.559Z,0.90
2023-05-18T22:29:18.609Z,1.00
2023-05-18T22:31:45.458Z,0.90
2023-05-18T22:34:12.322Z,1.05
2023-05-18T22:36:39.085Z,1.00
2023-05-18T22:39:05.809Z,1.23
2023-05-18T22:41:32.794Z,1.10
2023-05-18T22:43:59.372Z,1.10
2023-05-18T22:46:28.422Z,1.15
2023-05-18T22:48:55.007Z,0.90
2023-05-18T22:51:23.451Z,0.88
2023-05-18T22:53:50.155Z,1.02
2023-05-18T22:56:18.619Z,0.80
2023-05-18T22:58:45.495Z,0.80
2023-05-18T23:01:12.168Z,1.02
2023-05-18T23:03:39.005Z,1.00
2023-05-18T23:06:07.039Z,1.00
2023-05-18T23:08:36.886Z,1.00
2023-05-18T23:11:05.157Z,1.05
2023-05-18T23:13:32.962Z,1.00
2023-05-18T23:16:00.998Z,0.95
2023-05-18T23:18:29.721Z,1.23
2023-05-18T23:20:58.731Z,0.95
2023-05-18T23:23:28.286Z,0.88
2023-05-18T23:25:55.218Z,1.10
2023-05-18T23:28:22.382Z,0.90
2023-05-18T23:30:49.526Z,0.90
2023-05-18T23:33:16.498Z,1.00
2023-05-18T23:35:43.145Z,0.90
2023-05-18T23:38:10.657Z,0.98
2023-05-18T23:40:37.288Z,0.80
2023-05-18T23:43:04.130Z,1.10
2023-05-18T23:45:32.328Z,0.95
2023-05-18T23:47:59.281Z,0.90
2023-05-18T23:50:27.275Z,1.00
2023-05-18T23:52:54.485Z,1.23
2023-05-18T23:55:24.377Z,0.90
2023-05-18T23:57:52.272Z,1.00
